createdAt,value
2022-12-18T14:46:52.403Z,100351.31
2022-12-18T14:49:19.382Z,100344.38
2022-12-18T14:51:52.230Z,100354.81
2022-12-18T14:54:23.890Z,100371.28
2022-12-18T14:57:02.066Z,100364.59
2022-12-18T14:59:31.819Z,100366.44
2022-12-18T15:02:17.000Z,100368.47
2022-12-18T15:04:47.438Z,100376.22
2022-12-18T15:07:18.582Z,100372.22
2022-12-18T15:10:08.829Z,100380.88
2022-12-18T15:12:37.057Z,100374.84
2022-12-18T15:15:06.041Z,100383.56
2022-12-18T15:17:37.229Z,100393.97
2022-12-18T15:20:11.189Z,100406.16
2022-12-18T15:22:39.815Z,100411.34
2022-12-18T15:25:35.201Z,100402.81
2022-12-18T15:28:03.834Z,100407.13
2022-12-18T15:30:33.046Z,100402.84
2022-12-18T15:33:31.086Z,100409.81
2022-12-18T15:36:26.081Z,100416.69
2022-12-18T15:39:05.301Z,100417.47
2022-12-18T15:41:35.989Z,100410.34
2022-12-18T15:44:04.566Z,100436.44
2022-12-18T15:46:35.402Z,100432.13
2022-12-18T15:49:03.621Z,100415.00
2022-12-18T15:51:32.605Z,100412.41
2022-12-18T15:54:02.084Z,100404.56
2022-12-18T15:56:48.938Z,100403.66
2022-12-18T15:59:20.464Z,100405.41
2022-12-18T16:01:49.839Z,100416.69
2022-12-18T16:04:21.059Z,100408.06
2022-12-18T16:09:43.003Z,100423.53
2022-12-18T16:12:22.296Z,100442.34
2022-12-18T16:14:53.966Z,100438.00
2022-12-18T16:17:20.668Z,100438.94
2022-12-18T16:19:47.337Z,100442.28
2022-12-18T16:22:25.294Z,100457.00
2022-12-18T16:24:53.663Z,100465.59
2022-12-18T16:27:29.871Z,100474.16
2022-12-18T16:29:56.513Z,100460.41
2022-12-18T16:32:23.704Z,100471.53
2022-12-18T16:34:53.973Z,100478.31
2022-12-18T16:37:20.584Z,100480.91
2022-12-18T16:39:50.102Z,100486.03
2022-12-18T16:42:20.485Z,100487.84
2022-12-18T16:44:49.669Z,100486.91
2022-12-18T16:47:16.721Z,100498.13
2022-12-18T16:49:45.962Z,100486.81
2022-12-18T16:52:12.710Z,100518.00
2022-12-18T16:54:39.258Z,100470.91
2022-12-18T16:57:05.987Z,100532.47
2022-12-18T16:59:32.932Z,100531.66
2022-12-18T17:01:59.706Z,100509.91
2022-12-18T17:04:26.995Z,100540.13
2022-12-18T17:06:53.987Z,100556.53
2022-12-18T17:09:29.016Z,100554.81
2022-12-18T17:11:56.397Z,100560.66
2022-12-18T17:14:24.723Z,100561.41
2022-12-18T17:17:19.899Z,100553.53
2022-12-18T17:19:40.609Z,100565.53
2022-12-18T17:22:09.353Z,100569.91
2022-12-18T17:24:36.383Z,100574.19
2022-12-18T17:27:06.402Z,100586.84
2022-12-18T17:29:39.117Z,100580.75
2022-12-18T17:32:10.420Z,100586.69
2022-12-18T17:34:38.497Z,100593.50
2022-12-18T17:37:05.086Z,100597.81
2022-12-18T17:39:31.637Z,100587.13
2022-12-18T17:41:59.516Z,100595.78
2022-12-18T17:44:26.073Z,100605.38
2022-12-18T17:46:53.149Z,100613.91
2022-12-18T17:52:55.264Z,100621.41
2022-12-18T17:55:21.896Z,100639.50
2022-12-18T17:57:48.472Z,100630.00
2022-12-18T18:00:15.684Z,100639.38
2022-12-18T18:02:42.596Z,100643.56
2022-12-18T18:05:09.854Z,100647.69
2022-12-18T18:07:39.003Z,100657.16
2022-12-18T18:10:24.191Z,100666.59
2022-12-18T18:13:09.170Z,100677.63
2022-12-18T18:15:36.569Z,100685.34
2022-12-18T18:18:04.770Z,100677.53
2022-12-18T18:20:35.193Z,100683.44
2022-12-18T18:23:01.794Z,100689.50
2022-12-18T18:25:34.240Z,100657.06
2022-12-18T18:28:08.804Z,100681.72
2022-12-18T18:30:37.171Z,100688.66
2022-12-18T18:33:07.621Z,100698.03
2022-12-18T18:35:55.104Z,100693.56
2022-12-18T18:38:21.836Z,100691.84
2022-12-18T18:40:48.462Z,100698.84
2022-12-18T18:43:15.152Z,100706.47
2022-12-18T18:45:46.270Z,100707.34
2022-12-18T18:48:14.614Z,100706.44
2022-12-18T18:51:00.268Z,100696.00
2022-12-18T18:53:37.508Z,100722.66
2022-12-18T18:56:45.498Z,100711.31
2022-12-18T18:58:51.834Z,100731.00
2022-12-18T19:01:30.833Z,100680.00
2022-12-18T19:03:57.551Z,100744.59
2022-12-18T19:06:27.390Z,100737.69
2022-12-18T19:08:56.721Z,100747.06
2022-12-18T19:11:45.012Z,100743.50
2022-12-18T19:14:14.043Z,100762.56
2022-12-18T19:16:41.811Z,100750.47
2022-12-18T19:19:11.432Z,100741.75
2022-12-18T19:21:40.274Z,100724.91
2022-12-18T19:24:07.215Z,100756.59
2022-12-18T19:26:39.989Z,100753.13
2022-12-18T19:29:12.019Z,100746.03
2022-12-18T19:31:43.210Z,100740.56
2022-12-18T19:34:09.860Z,100742.38
2022-12-18T19:36:39.076Z,100752.91
2022-12-18T19:39:19.388Z,100763.22
2022-12-18T19:41:46.771Z,100762.22
2022-12-18T19:44:15.906Z,100771.75
2022-12-18T19:46:43.125Z,100777.75
2022-12-18T19:49:11.192Z,100796.56
2022-12-18T19:51:38.488Z,100780.94
2022-12-18T19:54:10.953Z,100805.22
2022-12-18T19:56:48.841Z,100815.53
2022-12-18T19:59:21.288Z,100774.56
2022-12-18T20:01:48.016Z,100819.69
2022-12-18T20:04:14.788Z,100816.38
2022-12-18T20:06:53.289Z,100828.38
2022-12-18T20:09:21.073Z,100818.81
2022-12-18T20:11:49.883Z,100824.56
2022-12-18T20:14:21.137Z,100821.97
2022-12-18T20:16:53.073Z,100837.34
2022-12-18T20:19:24.701Z,100799.34
2022-12-18T20:21:55.385Z,100836.34
2022-12-18T20:24:21.938Z,100845.88
2022-12-18T20:26:55.052Z,100845.81
2022-12-18T20:29:21.654Z,100839.72
2022-12-18T20:31:48.297Z,100845.06
2022-12-18T20:34:14.920Z,100847.63
2022-12-18T20:36:41.577Z,100769.72
2022-12-18T20:39:09.979Z,100855.25
2022-12-18T20:41:39.396Z,100861.09
2022-12-18T20:44:22.335Z,100835.69
2022-12-18T20:46:54.352Z,100867.84
2022-12-18T20:49:21.359Z,100867.81
2022-12-18T20:51:51.389Z,100878.09
2022-12-18T20:54:18.010Z,100887.63
2022-12-18T20:56:44.565Z,100879.91
2022-12-18T20:59:11.446Z,100878.19
2022-12-18T21:01:39.481Z,100889.19
2022-12-18T21:04:10.917Z,100898.72
2022-12-18T21:06:37.778Z,100902.00
2022-12-18T21:09:05.411Z,100892.31
2022-12-18T21:11:52.561Z,100908.78
2022-12-18T21:14:22.360Z,100892.22
2022-12-18T21:16:50.078Z,100908.69
2022-12-18T21:19:19.375Z,100896.50
2022-12-18T21:21:46.452Z,100915.69
2022-12-18T21:24:13.359Z,100912.13
2022-12-18T21:26:45.820Z,100915.69
2022-12-18T21:29:18.517Z,100916.50
2022-12-18T21:31:46.059Z,100911.75
2022-12-18T21:34:17.454Z,100924.13
2022-12-18T21:36:45.433Z,100916.94
2022-12-18T21:39:15.242Z,100920.53
2022-12-18T21:42:02.171Z,100923.16
2022-12-18T21:44:28.843Z,100942.88
2022-12-18T21:47:05.780Z,100935.81
2022-12-18T21:49:38.862Z,100947.09
2022-12-18T21:52:05.805Z,100941.06
2022-12-18T21:54:32.621Z,100942.59
2022-12-18T21:57:02.363Z,100941.81
2022-12-18T21:59:30.525Z,100951.28
2022-12-18T22:01:59.936Z,100960.72
2022-12-18T22:04:27.477Z,100962.38
2022-12-18T22:06:55.193Z,100928.47
2022-12-18T22:09:24.404Z,100947.28
2022-12-18T22:11:51.694Z,100964.63
2022-12-18T22:14:18.251Z,100960.13
2022-12-18T22:16:45.300Z,100966.97
2022-12-18T22:19:14.817Z,100979.75
2022-12-18T22:21:45.823Z,100976.94
2022-12-18T22:24:23.536Z,100981.22
2022-12-18T22:26:53.126Z,100989.66
2022-12-18T22:29:51.007Z,100990.47
2022-12-18T22:32:23.412Z,101004.81
2022-12-18T22:35:04.946Z,101011.72
2022-12-18T22:37:33.876Z,101003.88
2022-12-18T22:40:02.839Z,101013.22
2022-12-18T22:42:30.969Z,101012.97
2022-12-18T22:45:02.533Z,101027.69
2022-12-18T22:47:30.347Z,101029.44
2022-12-18T22:49:58.045Z,101037.13
2022-12-18T22:52:25.288Z,101028.63
2022-12-18T22:54:53.692Z,101035.63
2022-12-18T22:57:20.685Z,101034.78
2022-12-18T22:59:48.023Z,101045.06
2022-12-18T23:02:14.854Z,101036.38
2022-12-18T23:04:41.517Z,101042.31
2022-12-18T23:07:08.959Z,101045.16
2022-12-18T23:09:37.882Z,101052.03
2022-12-18T23:12:04.816Z,101045.22
2022-12-18T23:14:31.902Z,101048.59
2022-12-18T23:16:58.494Z,101056.31
2022-12-18T23:19:25.374Z,101058.66
2022-12-18T23:21:52.825Z,101039.63
2022-12-18T23:24:21.375Z,101062.25
2022-12-18T23:26:47.952Z,101022.56
2022-12-18T23:29:15.602Z,101075.81
2022-12-18T23:31:42.250Z,101089.53
2022-12-18T23:34:12.791Z,101070.59
2022-12-18T23:36:46.392Z,101035.97
2022-12-18T23:39:15.459Z,101082.56
2022-12-18T23:41:56.626Z,101084.00
2022-12-18T23:44:23.330Z,101086.84
2022-12-18T23:46:50.059Z,101087.59
2022-12-18T23:49:19.130Z,101096.28
2022-12-18T23:51:45.694Z,101113.41
2022-12-18T23:54:12.262Z,101094.38
2022-12-18T23:56:38.963Z,101103.88
2022-12-18T23:59:05.641Z,101060.09
